Portada
METAR-TAF:

METAR-TAF

Aeropuertos :

Meridian, Misisipi, Estados Unidos

latitud: 32-32-47N, longitud: 088-32-35W, altitud: 96 m

Observación

El informe se hizo hace 41 minutos, a las 02:56 UTC
Viento 5 kt del norte
Temperatura 21°C
Humedad 78%
Presión 1020 hPa
Visibilidad: 16.1 km
Cielo despejado

METAR: KNMM 010256Z AUTO 36005KT 10SM CLR 21/17 A3012 RMK AO2 SLP207 T02110167 52014 $

Hora: 22:37 (03:37 UTC)

Pronóstico

Pronóstico válido del 31 a las 23 UTC al 01 a las 23 UTC
Viento 5 kt con dirección variable
Visibilidad 10 km o más
Escasas nubes a una altura de 25000 ft
A partir de las 01 a las 1800 UTC
Viento 6 kt del este
Visibilidad: 0111 m
Escasas nubes a una altura de 3000 ft
Nubes dispersas a una altura de 25000 ft

TAF: KNMM 3123/0123 VRB05KT 9999 FEW250 QNH3001INS FM011800 09006KT 9999 FEW030 SCT250 QNH3000INS AUTOMATED SENSOR METWATCH 3123 TIL 0111 T16/0110Z T29/0120Z FN00210

Observaciones y pronósticos meteorológicos de más de 4000 aeropuertos (mensajes METAR y TAF).

Los puntos amarillos y rojos representan las estaciones disponibles.

Ponga el ratón en el punto deseado para ver el nombre de la estación.

Haga clic para ver las observaciones y los pronósticos meteorológicos.

Para cambiar el mapa : haga clic en los botones verdes con una cruz de color negro para hacer un zoom, en el botón verde con un guión para alejar o en las flechas verdes para mapas adyacentes.


METAR-TAF: